Nanjing, Jiangsu

3:21 PM CST on May 29, 2015 (GMT +0800)
Lukou | | Change Station
CLOSE
Current Station
Airport
Location: Nanjing,
Elevation: 118 ft
Nearby Weather Stations

Elev 118 ft 31.93 °N, 118.90 °E | Updated 21 minutes ago

Light Rain
Light Rain Mist
72 °F
Feels Like 72 °F
N
7
Wind Variable Wind from ENE

Today
High -- | Low -- °F
--% Chance of Precip.
Yesterday
High -- | Low -- °F
Precip. -- in
5:01 AM 7:02 PM
Waxing Gibbous, 82% visible
Pressure 29.59 in
Visibility 1.2 miles
Clouds Mostly Cloudy 900 ft
Overcast 3300 ft
Dew Point 70 °F
Humidity 94%
Rainfall 0.00 in
Snow Depth Not available.
UV 3 out of 12
Pollen Not available.
Air Quality Not available.
Flu Activity Not available.
METAR ZSNJ 290700Z 07003MPS 040V100 2000 -RA BR BKN009 OVC033 22/21 Q1002 NOSIG

More Conditions Fewer Conditions

Pressure 29.59 in
Visibility 1.2 miles
Clouds Mostly Cloudy 900 ft
Overcast 3300 ft
Dew Point 70 °F
Humidity 94%
Rainfall 0.00 in
Snow Depth Not available.
UV 3 out of 12
Pollen Not available.
Air Quality Not available.
Flu Activity Not available.
METAR ZSNJ 290700Z 07003MPS 040V100 2000 -RA BR BKN009 OVC033 22/21 Q1002 NOSIG

More Conditions Fewer Conditions

10-Day Weather Forecast

Almanac

Astronomy

May. 29, 2015 Rise Set
Actual Time
Civil Twilight
Nautical Twilight
Astronomical Twilight
Moon
Length of Visible Light
Length of Day
Tomorrow will be .
, % of the Moon is Illuminated

Today's Extremes

Country Highs Country Lows

Community

WunderPhotos

Upload Photos

1,825,215 photos uploaded!

WunderBlogs® & News

Nearby

Air Quality

  Air Quality AQ Index Pollutant
Not available.

Snow Depth

Station Depth Elevation

Earthquake Activity

City Distance Mag. Time & Date
Minimum magnitude displayed is 2.5.

Coastal Water Temperatures

Place Temperature

Stations

Nearby Weather Stations

Station Location Temp. Windchill Dew Point Humidity Wind Precip. Elev Updated Type